Time;durP1;ratioP1;P1;durP2;ratioP2;P2;SDS_P1;SDS_P2;PMS_P1;PMS_P2;Temp;Humidity;BMP_temperature;BMP_pressure;BME280_temperature;BME280_humidity;BME280_pressure;Samples;Min_cycle;Max_cycle;Signal;HPM_P1;HPM_P2
2020/12/05 00:00:44;;;;;;;27.20;11.93;;;;;;;4.57;100.00;95651.22;5113436;28;20204;-76
2020/12/05 00:03:12;;;;;;;30.80;12.50;;;;;;;4.59;100.00;95648.34;5103914;28;20208;-76
2020/12/05 00:05:41;;;;;;;23.03;12.37;;;;;;;4.59;100.00;95627.22;5112848;27;20200;-76
2020/12/05 00:08:08;;;;;;;27.40;12.93;;;;;;;4.41;100.00;95633.31;5114575;28;20298;-76
2020/12/05 00:10:35;;;;;;;24.70;11.83;;;;;;;4.65;100.00;95652.75;5110071;28;20205;-76
2020/12/05 00:13:01;;;;;;;26.07;12.43;;;;;;;4.49;100.00;95671.84;5114725;28;20539;-76
2020/12/05 00:15:28;;;;;;;23.77;12.83;;;;;;;4.55;100.00;95687.59;5109046;28;20589;-76
2020/12/05 00:17:55;;;;;;;28.40;12.23;;;;;;;4.85;100.00;95679.72;5108447;28;20228;-76
2020/12/05 00:20:23;;;;;;;26.53;11.43;;;;;;;4.69;100.00;95665.31;5102888;28;20288;-76
2020/12/05 00:22:49;;;;;;;26.00;12.10;;;;;;;4.64;100.00;95651.97;5110881;28;20206;-76
2020/12/05 00:25:16;;;;;;;25.00;11.97;;;;;;;4.41;100.00;95624.59;5106264;28;20781;-76
2020/12/05 00:27:43;;;;;;;28.97;13.53;;;;;;;4.45;100.00;95594.09;5108388;28;20229;-77
2020/12/05 00:30:10;;;;;;;26.23;12.27;;;;;;;4.71;100.00;95599.03;5109042;28;20199;-76
2020/12/05 00:32:37;;;;;;;24.43;11.93;;;;;;;4.53;100.00;95604.34;5104323;28;20200;-76
2020/12/05 00:35:05;;;;;;;26.80;11.40;;;;;;;4.55;100.00;95605.75;5109403;28;20234;-76
2020/12/05 00:37:32;;;;;;;26.80;11.90;;;;;;;4.64;100.00;95615.00;5108309;28;20700;-77
2020/12/05 00:39:59;;;;;;;26.97;12.63;;;;;;;4.83;100.00;95607.84;5103624;28;20208;-76
2020/12/05 00:42:26;;;;;;;27.20;12.10;;;;;;;4.82;100.00;95593.81;5099263;28;20211;-77
2020/12/05 00:44:53;;;;;;;27.83;12.67;;;;;;;4.71;100.00;95599.03;5101896;28;20233;-76
2020/12/05 00:47:20;;;;;;;23.47;12.07;;;;;;;4.75;100.00;95619.50;5109818;28;20230;-76
2020/12/05 00:49:47;;;;;;;26.27;11.43;;;;;;;4.91;100.00;95631.28;5105276;28;20208;-76
2020/12/05 00:52:13;;;;;;;29.43;13.10;;;;;;;4.88;100.00;95613.25;5108750;28;20835;-76
2020/12/05 00:54:41;;;;;;;25.97;12.43;;;;;;;4.51;100.00;95591.38;5111170;28;20212;-76
2020/12/05 00:57:08;;;;;;;25.43;12.27;;;;;;;4.22;100.00;95586.84;5111494;28;20236;-77
2020/12/05 00:59:35;;;;;;;29.67;12.93;;;;;;;4.56;100.00;95580.13;5112429;28;20208;-76
2020/12/05 01:02:02;;;;;;;31.13;12.33;;;;;;;4.78;100.00;95582.06;5101874;28;20208;-76
2020/12/05 01:04:28;;;;;;;31.30;13.57;;;;;;;4.74;100.00;95591.50;5113911;28;20204;-76
2020/12/05 01:06:55;;;;;;;27.07;12.30;;;;;;;4.80;100.00;95593.25;5104103;28;20221;-76
2020/12/05 01:09:22;;;;;;;29.43;13.10;;;;;;;4.77;100.00;95609.53;5100101;28;20201;-76
2020/12/05 01:11:50;;;;;;;26.20;11.87;;;;;;;4.89;100.00;95620.97;5106193;28;20196;-76
2020/12/05 01:14:16;;;;;;;27.17;11.93;;;;;;;4.65;100.00;95642.19;5112526;28;20204;-76
2020/12/05 01:16:45;;;;;;;29.23;12.67;;;;;;;4.77;100.00;95653.63;5103058;28;20228;-75
2020/12/05 01:19:12;;;;;;;33.70;13.67;;;;;;;4.28;100.00;95667.00;5102531;28;20202;-76
2020/12/05 01:21:39;;;;;;;24.90;12.40;;;;;;;4.28;100.00;95674.91;5108146;28;20200;-76
2020/12/05 01:24:06;;;;;;;28.20;13.17;;;;;;;4.49;100.00;95688.50;5102730;28;20216;-76
2020/12/05 01:26:33;;;;;;;25.43;11.63;;;;;;;4.94;100.00;95683.69;5104232;28;20228;-76
2020/12/05 01:29:00;;;;;;;28.03;12.83;;;;;;;5.01;100.00;95684.41;5103843;28;20656;-76
2020/12/05 01:31:27;;;;;;;25.50;11.87;;;;;;;5.10;100.00;95686.53;5105731;28;20202;-76
2020/12/05 01:33:54;;;;;;;23.50;12.67;;;;;;;5.07;100.00;95702.03;5108386;28;20200;-76
2020/12/05 01:36:21;;;;;;;25.00;12.23;;;;;;;5.03;100.00;95706.94;5106780;27;20233;-76
2020/12/05 01:38:47;;;;;;;25.03;11.33;;;;;;;5.17;100.00;95728.72;5104409;28;20209;-76
2020/12/05 01:41:14;;;;;;;20.53;9.93;;;;;;;5.19;100.00;95700.25;5104913;28;20206;-76
2020/12/05 01:43:43;;;;;;;24.37;10.27;;;;;;;5.07;100.00;95692.25;5104761;28;20197;-76
2020/12/05 01:46:27;;;;;;;22.77;10.63;;;;;;;5.26;100.00;95715.00;5109989;28;20200;-76
2020/12/05 01:48:54;;;;;;;19.13;9.70;;;;;;;5.03;100.00;95699.00;5108771;28;20206;-76
2020/12/05 01:51:21;;;;;;;18.80;10.17;;;;;;;5.37;100.00;95713.41;5106113;28;20801;-76
2020/12/05 01:53:48;;;;;;;19.67;9.63;;;;;;;5.06;100.00;95705.69;5110795;28;20572;-76
2020/12/05 01:56:15;;;;;;;20.60;10.77;;;;;;;5.15;100.00;95712.28;5108028;28;20251;-77
2020/12/05 01:58:41;;;;;;;22.47;10.57;;;;;;;5.21;100.00;95717.50;5098765;28;20227;-76
2020/12/05 02:01:11;;;;;;;21.63;10.53;;;;;;;5.37;100.00;95732.75;5109491;28;20265;-76
2020/12/05 02:03:38;;;;;;;19.93;10.53;;;;;;;5.26;100.00;95732.69;5104628;28;20213;-76
2020/12/05 02:06:14;;;;;;;18.17;9.93;;;;;;;5.32;100.00;95748.47;5110405;28;20213;-76
2020/12/05 02:08:47;;;;;;;16.93;9.67;;;;;;;4.82;100.00;95727.75;5105400;28;20201;-76
2020/12/05 02:11:17;;;;;;;21.43;10.20;;;;;;;5.02;100.00;95738.91;5104579;28;20244;-76
2020/12/05 02:13:46;;;;;;;19.90;10.03;;;;;;;4.86;100.00;95735.00;5102455;28;20645;-76
2020/12/05 02:16:15;;;;;;;18.40;8.93;;;;;;;5.07;100.00;95745.13;5107243;28;20252;-77
2020/12/05 02:18:43;;;;;;;18.57;9.87;;;;;;;5.03;100.00;95748.44;5105195;28;20603;-77
2020/12/05 02:21:11;;;;;;;17.87;9.33;;;;;;;5.01;100.00;95761.03;5101522;28;20213;-76
2020/12/05 02:23:39;;;;;;;19.00;9.83;;;;;;;5.17;100.00;95785.06;5105952;28;20235;-76
2020/12/05 02:26:06;;;;;;;19.53;10.43;;;;;;;5.13;100.00;95799.72;5108103;28;20201;-76
2020/12/05 02:28:34;;;;;;;17.40;8.93;;;;;;;5.15;100.00;95810.91;5111324;28;20219;-76
2020/12/05 02:31:01;;;;;;;18.30;9.27;;;;;;;5.05;100.00;95802.69;5102319;28;20197;-76
2020/12/05 02:33:28;;;;;;;16.77;8.80;;;;;;;4.96;100.00;95830.44;5109633;28;20215;-76
2020/12/05 02:35:55;;;;;;;17.80;8.63;;;;;;;5.13;100.00;95810.31;5113235;28;20227;-76
2020/12/05 02:38:24;;;;;;;19.17;9.43;;;;;;;4.84;100.00;95810.22;5102221;28;20240;-77
2020/12/05 02:40:52;;;;;;;14.53;8.00;;;;;;;4.85;100.00;95815.31;5101337;28;20296;-77
2020/12/05 02:43:19;;;;;;;14.07;8.20;;;;;;;4.75;100.00;95827.38;5107051;28;20205;-76
2020/12/05 02:45:46;;;;;;;13.67;7.30;;;;;;;4.77;100.00;95820.84;5104448;28;20198;-77
2020/12/05 02:48:12;;;;;;;15.03;7.87;;;;;;;4.68;100.00;95842.50;5106969;28;20312;-76
2020/12/05 02:50:39;;;;;;;16.57;8.90;;;;;;;4.48;100.00;95863.78;5109726;28;20203;-76
2020/12/05 02:53:06;;;;;;;16.20;7.70;;;;;;;4.63;100.00;95884.59;5099233;28;20688;-76
2020/12/05 02:55:33;;;;;;;11.77;7.50;;;;;;;4.74;100.00;95900.56;5104995;28;20233;-77
2020/12/05 02:58:01;;;;;;;15.67;8.43;;;;;;;4.78;100.00;95933.41;5103523;28;20231;-76
2020/12/05 03:00:28;;;;;;;14.00;8.57;;;;;;;4.45;100.00;95940.78;5110556;28;20687;-76
2020/12/05 03:02:54;;;;;;;16.37;9.37;;;;;;;4.45;100.00;95935.50;5105020;28;20207;-76
2020/12/05 03:05:21;;;;;;;13.03;8.07;;;;;;;4.45;100.00;95940.78;5101619;28;20204;-76
2020/12/05 03:07:48;;;;;;;17.20;9.50;;;;;;;4.52;100.00;95953.97;5102271;28;20692;-77
2020/12/05 03:10:15;;;;;;;16.57;8.27;;;;;;;4.65;100.00;95951.22;5108541;28;20201;-76
2020/12/05 03:12:42;;;;;;;18.53;9.33;;;;;;;4.47;100.00;95964.34;5101428;28;20686;-77
2020/12/05 03:15:10;;;;;;;15.43;8.37;;;;;;;4.67;100.00;95963.19;5107742;28;20201;-76
2020/12/05 03:17:37;;;;;;;13.37;8.20;;;;;;;4.56;100.00;95955.94;5108577;27;20236;-76
2020/12/05 03:20:06;;;;;;;15.40;8.27;;;;;;;4.58;100.00;95961.81;5102205;28;20209;-75
2020/12/05 03:22:33;;;;;;;13.50;7.23;;;;;;;4.64;100.00;95958.34;5092971;28;20204;-75
2020/12/05 03:25:00;;;;;;;14.33;7.13;;;;;;;4.55;100.00;95935.84;5099760;28;20201;-74
2020/12/05 03:27:27;;;;;;;15.23;7.90;;;;;;;4.13;100.00;95920.69;5105584;28;20276;-74
2020/12/05 03:29:54;;;;;;;16.23;8.43;;;;;;;3.93;100.00;95922.63;5108607;28;20212;-74
2020/12/05 03:32:25;;;;;;;15.20;8.03;;;;;;;4.09;100.00;95927.41;5111037;28;20660;-76
2020/12/05 03:34:51;;;;;;;16.83;8.53;;;;;;;4.04;100.00;95939.59;5101529;28;20211;-75
2020/12/05 03:37:19;;;;;;;13.63;7.53;;;;;;;4.18;100.00;95949.91;5100333;28;20236;-75
2020/12/05 03:39:46;;;;;;;14.10;8.03;;;;;;;4.36;100.00;95973.75;5101458;28;20203;-75
2020/12/05 03:42:12;;;;;;;14.00;8.00;;;;;;;4.43;100.00;95971.06;5105567;28;20210;-75
2020/12/05 03:44:39;;;;;;;13.90;7.53;;;;;;;4.48;100.00;95992.38;5107901;28;20195;-75
2020/12/05 03:47:06;;;;;;;16.60;8.03;;;;;;;4.38;100.00;96006.03;5110506;28;20224;-75
2020/12/05 03:49:34;;;;;;;13.77;8.20;;;;;;;4.29;100.00;96001.19;5099326;28;20212;-75
2020/12/05 03:52:01;;;;;;;15.50;7.77;;;;;;;4.32;100.00;95996.28;5110240;28;20279;-75
2020/12/05 03:54:30;;;;;;;13.77;7.90;;;;;;;4.55;100.00;95998.41;5099495;28;20205;-75
2020/12/05 03:56:57;;;;;;;13.37;7.07;;;;;;;4.34;100.00;95991.63;5105144;28;20592;-75
2020/12/05 03:59:24;;;;;;;13.33;7.40;;;;;;;4.41;100.00;95989.75;5109692;28;20208;-75
2020/12/05 04:01:50;;;;;;;12.40;7.20;;;;;;;4.65;100.00;96004.03;5103161;28;20207;-75
2020/12/05 04:04:17;;;;;;;15.03;7.83;;;;;;;4.35;100.00;96001.16;5102946;28;20217;-75
2020/12/05 04:06:45;;;;;;;11.50;6.97;;;;;;;4.69;100.00;96011.34;5101106;28;20222;-75
2020/12/05 04:09:12;;;;;;;15.00;8.07;;;;;;;4.74;100.00;96022.06;5107974;28;20208;-75
2020/12/05 04:11:40;;;;;;;12.57;7.00;;;;;;;4.85;100.00;96039.88;5104466;28;20197;-75
2020/12/05 04:14:07;;;;;;;11.63;6.90;;;;;;;4.94;100.00;96043.91;5106010;28;20298;-75
2020/12/05 04:16:34;;;;;;;13.33;7.30;;;;;;;4.72;100.00;96037.31;5110708;28;20231;-76
2020/12/05 04:19:01;;;;;;;11.87;6.37;;;;;;;4.69;100.00;96050.97;5108992;28;20210;-76
2020/12/05 04:21:28;;;;;;;11.97;6.87;;;;;;;5.12;100.00;96049.25;5095227;28;20202;-75
2020/12/05 04:23:56;;;;;;;11.60;6.50;;;;;;;5.17;100.00;96057.34;5101737;28;20230;-75
2020/12/05 04:26:23;;;;;;;11.17;6.43;;;;;;;5.28;100.00;96069.84;5105118;28;20564;-75
2020/12/05 04:28:50;;;;;;;13.23;7.47;;;;;;;4.98;100.00;96074.13;5108784;28;20207;-76
2020/12/05 04:31:17;;;;;;;15.20;7.37;;;;;;;4.98;100.00;96076.00;5106161;28;20206;-75
2020/12/05 04:33:44;;;;;;;14.73;7.07;;;;;;;5.10;100.00;96071.63;5111338;28;20203;-76
2020/12/05 04:36:11;;;;;;;14.87;7.87;;;;;;;4.88;100.00;96057.94;5113703;28;20259;-76
2020/12/05 04:38:38;;;;;;;13.83;7.97;;;;;;;4.63;100.00;96069.47;5105189;28;20217;-75
2020/12/05 04:41:06;;;;;;;12.63;7.10;;;;;;;4.93;100.00;96063.41;5101519;28;20200;-75
2020/12/05 04:43:35;;;;;;;13.90;7.20;;;;;;;4.62;100.00;96047.53;5101359;28;20304;-76
2020/12/05 04:46:02;;;;;;;11.67;6.23;;;;;;;5.00;100.00;96031.66;5100949;28;20197;-75
2020/12/05 04:48:31;;;;;;;13.97;7.33;;;;;;;5.03;100.00;96039.16;5102327;28;20611;-75
2020/12/05 04:51:01;;;;;;;15.33;8.07;;;;;;;5.10;100.00;96046.03;5107142;28;20296;-75
2020/12/05 04:53:28;;;;;;;15.23;6.90;;;;;;;4.98;100.00;96055.63;5107421;27;20197;-77
2020/12/05 04:55:59;;;;;;;12.73;7.33;;;;;;;4.85;100.00;96073.41;5108815;28;20221;-76
2020/12/05 04:58:27;;;;;;;15.40;7.60;;;;;;;4.65;100.00;96086.75;5111405;28;20588;-74
2020/12/05 05:00:55;;;;;;;12.70;6.90;;;;;;;4.41;100.00;96092.72;5104166;28;20200;-74
2020/12/05 05:03:23;;;;;;;11.50;6.73;;;;;;;4.34;100.00;96101.69;5110746;28;20193;-74
2020/12/05 05:05:51;;;;;;;13.07;6.93;;;;;;;4.74;100.00;96105.78;5103568;28;21816;-74
2020/12/05 05:08:18;;;;;;;13.87;7.13;;;;;;;4.70;100.00;96126.53;5095881;28;20227;-74
2020/12/05 05:10:45;;;;;;;12.77;6.73;;;;;;;4.60;100.00;96139.38;5104510;28;20682;-74
2020/12/05 05:13:14;;;;;;;13.00;7.20;;;;;;;4.74;100.00;96142.78;5108767;28;20203;-74
2020/12/05 05:15:43;;;;;;;12.23;6.33;;;;;;;4.94;100.00;96151.44;5112063;28;20219;-74
2020/12/05 05:18:10;;;;;;;13.87;7.83;;;;;;;4.34;100.00;96165.06;5111313;28;20227;-74
2020/12/05 05:20:42;;;;;;;12.97;6.93;;;;;;;4.74;100.00;96169.19;5107935;28;20228;-74
2020/12/05 05:23:13;;;;;;;13.47;6.40;;;;;;;4.94;100.00;96167.28;5110970;28;20214;-74
2020/12/05 05:25:55;;;;;;;12.20;6.90;;;;;;;4.53;100.00;96157.06;5101900;28;20204;-74
2020/12/05 05:28:25;;;;;;;11.50;6.90;;;;;;;4.96;100.00;96175.81;5099971;28;20219;-74
2020/12/05 05:31:03;;;;;;;12.77;6.87;;;;;;;4.88;100.00;96190.06;5101785;28;20195;-74
2020/12/05 05:33:38;;;;;;;15.00;7.20;;;;;;;4.64;100.00;96201.34;5099656;28;20210;-74
2020/12/05 05:36:16;;;;;;;12.43;6.70;;;;;;;4.74;100.00;96188.50;5100364;28;20219;-74
2020/12/05 05:38:43;;;;;;;11.53;6.77;;;;;;;4.37;100.00;96196.34;5100079;28;20215;-74
2020/12/05 05:41:17;;;;;;;13.97;6.83;;;;;;;4.63;100.00;96205.00;5103638;28;20616;-75
2020/12/05 05:43:57;;;;;;;12.73;6.37;;;;;;;5.02;100.00;96196.91;5106290;28;20250;-75
2020/12/05 05:46:29;;;;;;;15.30;7.23;;;;;;;5.04;100.00;96210.75;5099909;28;20199;-74
2020/12/05 05:48:58;;;;;;;12.60;6.70;;;;;;;5.04;100.00;96218.69;5109249;28;20424;-75
2020/12/05 05:51:45;;;;;;;10.50;5.80;;;;;;;4.90;100.00;96224.22;5105363;28;20213;-75
2020/12/05 05:54:21;;;;;;;11.87;6.27;;;;;;;4.91;100.00;96215.25;5103683;28;20193;-75
2020/12/05 05:56:59;;;;;;;12.37;6.23;;;;;;;4.95;100.00;96221.75;5093253;28;20228;-75
2020/12/05 05:59:27;;;;;;;11.67;5.87;;;;;;;4.91;100.00;96223.19;5101572;28;20206;-75
2020/12/05 06:01:55;;;;;;;12.03;6.53;;;;;;;4.90;100.00;96213.66;5111021;28;20697;-75
2020/12/05 06:04:27;;;;;;;11.77;6.43;;;;;;;4.87;100.00;96212.22;5103282;28;20201;-75
2020/12/05 06:06:54;;;;;;;10.87;6.60;;;;;;;4.61;100.00;96214.97;5106230;28;20215;-75
2020/12/05 06:09:25;;;;;;;11.33;6.20;;;;;;;4.56;100.00;96212.13;5110147;28;20269;-75
2020/12/05 06:11:55;;;;;;;11.57;6.43;;;;;;;4.16;100.00;96210.56;5108387;28;20290;-75
2020/12/05 06:14:23;;;;;;;15.27;6.93;;;;;;;4.66;100.00;96216.97;5105354;28;20561;-76
2020/12/05 06:16:52;;;;;;;11.07;6.07;;;;;;;4.73;100.00;96221.22;5109620;28;20248;-77
2020/12/05 06:19:20;;;;;;;12.07;6.40;;;;;;;4.60;100.00;96218.63;5102342;27;20205;-75
2020/12/05 06:21:51;;;;;;;10.63;5.87;;;;;;;4.54;100.00;96240.59;5106100;28;20199;-75
2020/12/05 06:24:39;;;;;;;11.33;6.37;;;;;;;4.65;100.00;96237.31;5110174;28;20212;-75
2020/12/05 06:27:08;;;;;;;10.57;5.93;;;;;;;4.57;100.00;96249.94;5106187;28;20221;-74
2020/12/05 06:29:38;;;;;;;10.70;5.63;;;;;;;4.58;100.00;96252.34;5104467;28;20207;-81
2020/12/05 06:32:05;;;;;;;12.23;5.90;;;;;;;4.51;100.00;96264.75;5108540;28;21748;-75
2020/12/05 06:34:41;;;;;;;8.07;4.63;;;;;;;4.65;100.00;96290.13;5107318;27;20197;-75
2020/12/05 06:37:09;;;;;;;8.77;4.60;;;;;;;4.76;100.00;96288.69;5098537;28;20236;-74
2020/12/05 06:39:36;;;;;;;7.30;5.03;;;;;;;4.59;100.00;96290.16;5104631;28;20205;-75
2020/12/05 06:42:03;;;;;;;6.13;3.17;;;;;;;4.76;100.00;96289.50;5104970;28;20205;-74
2020/12/05 06:44:40;;;;;;;7.40;3.80;;;;;;;4.81;100.00;96299.44;5109186;28;20567;-75
2020/12/05 06:47:10;;;;;;;6.73;3.80;;;;;;;4.77;100.00;96306.97;5104198;28;20223;-74
2020/12/05 06:50:05;;;;;;;5.07;3.10;;;;;;;4.37;100.00;96305.38;5109029;28;20200;-74
2020/12/05 06:52:40;;;;;;;4.47;2.73;;;;;;;4.54;100.00;96311.06;5103690;28;20636;-74
2020/12/05 06:55:29;;;;;;;5.70;3.00;;;;;;;4.54;100.00;96311.91;5104751;28;20208;-74
2020/12/05 06:58:06;;;;;;;5.97;3.37;;;;;;;4.49;100.00;96316.97;5098818;28;20235;-75
2020/12/05 07:00:35;;;;;;;4.10;2.63;;;;;;;4.55;100.00;96326.72;5100042;28;20207;-75
2020/12/05 07:03:03;;;;;;;4.57;2.90;;;;;;;4.62;100.00;96329.38;5103834;28;20201;-76
2020/12/05 07:05:36;;;;;;;6.03;3.30;;;;;;;4.54;100.00;96330.38;5103936;28;20223;-76
2020/12/05 07:08:29;;;;;;;3.93;2.53;;;;;;;4.67;100.00;96335.66;5100935;28;20231;-75
2020/12/05 07:11:02;;;;;;;5.93;2.57;;;;;;;4.70;100.00;96334.41;5108415;28;20222;-78
2020/12/05 07:13:38;;;;;;;5.40;3.07;;;;;;;4.65;100.00;96327.13;5101585;28;20205;-75
2020/12/05 07:16:16;;;;;;;4.80;2.60;;;;;;;4.74;100.00;96325.06;5097621;28;20281;-76
2020/12/05 07:18:44;;;;;;;6.67;3.60;;;;;;;4.71;100.00;96341.31;5093406;28;20585;-74
2020/12/05 07:21:12;;;;;;;7.57;4.57;;;;;;;4.70;100.00;96322.03;5098224;28;20439;-77
2020/12/05 07:23:41;;;;;;;6.93;4.10;;;;;;;4.72;100.00;96324.47;5105642;28;20195;-73
2020/12/05 07:26:08;;;;;;;7.63;3.90;;;;;;;4.77;100.00;96325.47;5111427;28;20200;-77
2020/12/05 07:28:35;;;;;;;6.20;3.23;;;;;;;4.78;100.00;96321.81;5110957;28;20288;-75
2020/12/05 07:31:02;;;;;;;11.97;4.93;;;;;;;4.75;100.00;96316.94;5111377;28;20203;-74
2020/12/05 07:33:30;;;;;;;8.63;3.50;;;;;;;4.61;100.00;96320.63;5114251;28;20287;-73
2020/12/05 07:35:59;;;;;;;6.80;3.30;;;;;;;4.72;100.00;96317.34;5112542;28;20207;-79
2020/12/05 07:38:28;;;;;;;6.47;3.13;;;;;;;4.82;100.00;96328.31;5101122;28;20225;-74
2020/12/05 07:40:55;;;;;;;7.20;3.80;;;;;;;4.86;100.00;96340.09;5104673;28;20205;-74
2020/12/05 07:43:22;;;;;;;7.00;3.90;;;;;;;4.93;100.00;96343.53;5100791;28;20557;-73
2020/12/05 07:45:50;;;;;;;6.27;3.27;;;;;;;4.91;100.00;96342.94;5101247;28;20200;-74
2020/12/05 07:48:18;;;;;;;5.23;3.30;;;;;;;4.93;100.00;96362.03;5103497;28;20234;-74
2020/12/05 07:50:45;;;;;;;10.17;3.37;;;;;;;4.63;100.00;96362.69;5103181;28;20664;-75
2020/12/05 07:53:34;;;;;;;4.27;2.80;;;;;;;4.87;100.00;96370.00;5105806;28;20204;-79
2020/12/05 07:56:13;;;;;;;14.37;4.70;;;;;;;4.89;100.00;96363.47;5102161;28;20202;-75
2020/12/05 07:58:47;;;;;;;5.37;2.83;;;;;;;4.92;100.00;96360.41;5101445;28;20222;-74
2020/12/05 08:01:29;;;;;;;5.97;2.73;;;;;;;5.15;100.00;96357.31;5106907;28;21233;-75
2020/12/05 08:04:28;;;;;;;8.73;2.47;;;;;;;4.88;100.00;96366.31;5108836;28;20299;-74
2020/12/05 08:07:01;;;;;;;5.93;2.63;;;;;;;5.35;100.00;96366.84;5105030;28;20241;-74
2020/12/05 08:09:33;;;;;;;4.37;3.03;;;;;;;5.17;100.00;96368.47;5104632;28;20200;-77
2020/12/05 08:12:01;;;;;;;5.40;3.13;;;;;;;4.81;100.00;96368.97;5105919;28;20292;-78
2020/12/05 08:14:31;;;;;;;9.87;2.70;;;;;;;5.51;100.00;96363.72;5106737;28;20564;-76
2020/12/05 08:17:01;;;;;;;4.40;2.47;;;;;;;5.20;100.00;96370.72;5109832;28;20710;-76
2020/12/05 08:19:28;;;;;;;8.47;2.83;;;;;;;5.28;100.00;96362.59;5111686;28;20216;-75
2020/12/05 08:21:55;;;;;;;4.17;2.40;;;;;;;5.54;100.00;96360.63;5111745;28;20681;-73
2020/12/05 08:24:22;;;;;;;3.77;2.30;;;;;;;4.94;100.00;96361.03;5111300;28;20582;-73
2020/12/05 08:26:51;;;;;;;14.83;3.07;;;;;;;5.21;100.00;96353.84;5107284;28;20217;-76
2020/12/05 08:29:19;;;;;;;5.77;3.00;;;;;;;5.35;100.00;96355.44;5105213;28;20230;-75
2020/12/05 08:31:46;;;;;;;3.10;1.83;;;;;;;5.25;100.00;96365.63;5113343;28;20705;-75
2020/12/05 08:34:13;;;;;;;2.77;1.47;;;;;;;5.29;100.00;96378.22;5105531;28;20200;-74
2020/12/05 08:36:44;;;;;;;2.63;2.00;;;;;;;5.77;100.00;96383.94;5098551;28;20312;-75
2020/12/05 08:39:12;;;;;;;4.93;2.00;;;;;;;5.74;100.00;96389.69;5110661;28;20203;-74
2020/12/05 08:41:46;;;;;;;4.47;2.40;;;;;;;6.08;100.00;96403.38;5106027;28;20202;-76
2020/12/05 08:44:15;;;;;;;3.63;2.50;;;;;;;5.48;100.00;96410.94;5105255;28;20207;-77
2020/12/05 08:46:42;;;;;;;3.90;2.20;;;;;;;5.91;100.00;96410.19;5103941;28;20223;-75
2020/12/05 08:49:16;;;;;;;5.20;3.10;;;;;;;5.78;100.00;96417.34;5109767;28;20204;-74
2020/12/05 08:51:47;;;;;;;5.10;2.70;;;;;;;5.78;100.00;96420.81;5103760;28;20210;-75
2020/12/05 08:54:14;;;;;;;6.30;2.50;;;;;;;5.49;100.00;96418.66;5109572;28;20209;-75
2020/12/05 08:56:40;;;;;;;3.47;2.40;;;;;;;6.20;100.00;96428.16;5110883;28;20221;-75
2020/12/05 08:59:07;;;;;;;4.17;2.67;;;;;;;6.22;100.00;96433.25;5106751;28;20212;-74
2020/12/05 09:01:40;;;;;;;4.43;2.60;;;;;;;6.35;100.00;96438.50;5106346;28;20206;-74
2020/12/05 09:04:07;;;;;;;3.80;2.80;;;;;;;6.50;100.00;96431.84;5114003;28;20292;-75
2020/12/05 09:06:34;;;;;;;5.07;2.57;;;;;;;6.56;100.00;96444.28;5110800;28;20217;-73
2020/12/05 09:09:01;;;;;;;5.93;2.50;;;;;;;6.24;100.00;96441.81;5111355;28;20520;-74
2020/12/05 09:11:28;;;;;;;4.57;2.77;;;;;;;6.07;100.00;96436.19;5110726;28;20201;-74
2020/12/05 09:13:55;;;;;;;5.17;2.70;;;;;;;5.81;100.00;96433.66;5109698;28;20208;-73
2020/12/05 09:16:32;;;;;;;3.70;2.53;;;;;;;5.70;100.00;96431.63;5099728;28;20228;-74
2020/12/05 09:19:00;;;;;;;3.40;2.50;;;;;;;6.11;100.00;96434.75;5108976;28;20205;-74
2020/12/05 09:21:34;;;;;;;4.23;2.33;;;;;;;6.19;100.00;96439.00;5106454;28;20293;-76
2020/12/05 09:24:02;;;;;;;3.20;2.23;;;;;;;5.73;100.00;96433.84;5109898;28;20218;-74
2020/12/05 09:26:29;;;;;;;2.90;2.17;;;;;;;5.83;100.00;96438.75;5104700;28;20200;-74
2020/12/05 09:28:56;;;;;;;2.97;2.23;;;;;;;5.89;100.00;96433.41;5108139;28;20206;-79
2020/12/05 09:31:23;;;;;;;3.10;2.00;;;;;;;6.17;100.00;96448.97;5105410;27;20208;-74
2020/12/05 09:33:50;;;;;;;4.47;2.40;;;;;;;6.71;100.00;96452.69;5113619;28;20201;-76
2020/12/05 09:36:18;;;;;;;4.40;2.60;;;;;;;6.76;100.00;96457.38;5104936;28;20722;-75
2020/12/05 09:38:44;;;;;;;3.33;2.30;;;;;;;6.80;100.00;96453.28;5106925;28;20206;-74
2020/12/05 09:41:11;;;;;;;2.43;2.00;;;;;;;6.87;100.00;96448.72;5105121;28;20293;-75
2020/12/05 09:43:38;;;;;;;2.47;2.07;;;;;;;7.30;100.00;96449.59;5112537;28;20574;-74
2020/12/05 09:46:05;;;;;;;4.50;2.27;;;;;;;7.17;100.00;96458.50;5107038;28;20228;-74
2020/12/05 09:48:32;;;;;;;4.97;2.20;;;;;;;7.32;100.00;96456.28;5102640;28;20235;-73
2020/12/05 09:50:58;;;;;;;4.73;2.40;;;;;;;6.95;100.00;96462.53;5104802;27;20206;-74
2020/12/05 09:53:26;;;;;;;4.67;2.97;;;;;;;6.90;100.00;96475.63;5103364;28;20204;-76
2020/12/05 09:55:53;;;;;;;3.97;2.53;;;;;;;6.49;100.00;96482.44;5100346;28;20262;-72
2020/12/05 09:58:20;;;;;;;4.13;2.73;;;;;;;6.22;100.00;96473.81;5104933;28;20221;-75
2020/12/05 10:00:46;;;;;;;2.90;2.47;;;;;;;6.52;100.00;96471.38;5101575;28;20206;-76
2020/12/05 10:03:13;;;;;;;5.50;3.20;;;;;;;6.43;100.00;96473.50;5114525;28;20605;-76
2020/12/05 10:05:40;;;;;;;3.70;2.37;;;;;;;6.47;100.00;96473.88;5106896;28;20206;-74
2020/12/05 10:08:09;;;;;;;4.87;2.77;;;;;;;5.84;100.00;96464.19;5109689;27;20227;-74
2020/12/05 10:10:36;;;;;;;4.63;2.80;;;;;;;6.49;100.00;96472.63;5105368;28;20237;-75
2020/12/05 10:13:03;;;;;;;4.37;2.53;;;;;;;6.82;100.00;96477.72;5105654;28;20330;-76
2020/12/05 10:15:30;;;;;;;4.47;2.80;;;;;;;6.77;100.00;96469.59;5109429;28;20197;-73
2020/12/05 10:17:57;;;;;;;3.50;2.50;;;;;;;6.66;100.00;96457.84;5109780;28;20834;-73
2020/12/05 10:20:23;;;;;;;5.27;2.57;;;;;;;6.95;100.00;96459.88;5103278;28;20575;-74
2020/12/05 10:22:50;;;;;;;5.13;2.63;;;;;;;7.15;100.00;96452.56;5111898;28;20217;-75
2020/12/05 10:25:17;;;;;;;6.53;3.20;;;;;;;6.66;100.00;96465.78;5101689;28;20205;-75
2020/12/05 10:27:45;;;;;;;4.50;3.23;;;;;;;6.35;100.00;96464.97;5103275;28;20226;-74
2020/12/05 10:30:12;;;;;;;5.63;3.03;;;;;;;6.69;100.00;96454.78;5099451;28;20294;-73
2020/12/05 10:32:39;;;;;;;4.73;2.93;;;;;;;6.94;100.00;96460.91;5105885;28;20206;-75
2020/12/05 10:35:06;;;;;;;6.47;3.40;;;;;;;6.87;100.00;96476.06;5106841;27;20205;-74
2020/12/05 10:37:33;;;;;;;5.03;3.07;;;;;;;7.18;100.00;96488.47;5106307;28;20271;-73
2020/12/05 10:39:59;;;;;;;6.73;2.97;;;;;;;6.78;100.00;96481.81;5109535;28;20205;-74
2020/12/05 10:42:26;;;;;;;6.30;3.20;;;;;;;6.84;100.00;96495.03;5106698;28;20207;-75
2020/12/05 10:44:54;;;;;;;3.93;2.80;;;;;;;6.38;100.00;96505.09;5102378;28;20571;-74
2020/12/05 10:47:21;;;;;;;4.57;3.00;;;;;;;6.71;100.00;96507.56;5107238;28;20215;-78
2020/12/05 10:49:47;;;;;;;4.73;2.90;;;;;;;6.74;100.00;96510.59;5104179;28;20254;-76
2020/12/05 10:52:14;;;;;;;4.67;3.23;;;;;;;6.73;100.00;96511.63;5111182;28;20202;-76
2020/12/05 10:54:41;;;;;;;7.00;3.40;;;;;;;6.87;100.00;96507.06;5105506;28;20202;-78
2020/12/05 10:57:08;;;;;;;5.87;3.10;;;;;;;7.20;100.00;96515.59;5100090;28;20226;-75
2020/12/05 10:59:35;;;;;;;4.87;3.20;;;;;;;7.11;100.00;96520.34;5112836;28;20214;-76
2020/12/05 11:02:03;;;;;;;5.57;3.40;;;;;;;6.76;100.00;96513.84;5112987;22;20637;-75
2020/12/05 11:04:30;;;;;;;7.70;3.47;;;;;;;6.61;100.00;96510.66;5069377;28;20204;-73
2020/12/05 11:06:57;;;;;;;6.83;3.40;;;;;;;6.69;100.00;96514.91;5073143;28;20207;-73
2020/12/05 11:09:23;;;;;;;6.37;3.67;;;;;;;6.89;100.00;96524.38;5071006;28;20196;-74
2020/12/05 11:11:50;;;;;;;4.57;3.37;;;;;;;6.88;100.00;96521.94;5074079;28;20236;-73
2020/12/05 11:14:17;;;;;;;5.57;3.47;;;;;;;6.28;100.00;96511.84;5049601;28;20212;-76
2020/12/05 11:16:44;;;;;;;7.90;3.80;;;;;;;6.37;100.00;96515.91;5054078;28;20222;-76
2020/12/05 11:19:11;;;;;;;7.50;4.67;;;;;;;6.67;100.00;96496.59;5052858;28;20209;-78
2020/12/05 11:21:38;;;;;;;5.20;3.93;;;;;;;6.26;100.00;96496.19;5053934;28;20211;-74
2020/12/05 11:24:05;;;;;;;5.87;4.23;;;;;;;6.42;100.00;96492.25;5054267;28;20214;-73
2020/12/05 11:26:32;;;;;;;6.17;4.03;;;;;;;7.10;100.00;96502.00;5055938;28;20193;-74
2020/12/05 11:28:58;;;;;;;6.53;4.17;;;;;;;7.04;100.00;96494.88;5056070;28;20211;-72
2020/12/05 11:31:25;;;;;;;5.43;3.70;;;;;;;7.56;100.00;96483.84;5050223;28;20210;-74
2020/12/05 11:33:52;;;;;;;4.80;3.33;;;;;;;7.20;100.00;96494.38;5056266;28;20226;-74